Millenium Air

Millenium Air Since 1998



 METAR AND TAF INFORMATION
METAR FOR URMO
ADDS - METARS form results

(0805 UTC 19 January 2021)
Data provider http://aviationweather.gov/metar/data/
 
METAR text: URMO 190800Z 12002MPS 9999 BKN026 M02/M05 Q1017 R09/290150 NOSIG RMK QFE719/0959
Conditions at: URMO (BESLAN , RU) observed 0800 UTC 19 January 2021
Temperature: -2.0°C (28°F)
Dewpoint: -5.0°C (23°F) [RH = 80%]
Pressure (altimeter): 30.03 inches Hg (1017.0 mb)
Winds: from the ESE (120 degrees) at 5 MPH (4 knots; 2.1 m/s)
Visibility: 6 or more miles (10+ km)
Ceiling: 2600 feet AGL
Clouds: broken clouds at 2600 feet AGL
Weather: no significant weather observed at this time

METAR text: URMO 190730Z 13003MPS 090V150 9999 BKN026 M03/M05 Q1017 R09/690245 NOSIG RMK QFE719/0959
Conditions at: URMO (BESLAN , RU) observed 0730 UTC 19 January 2021
Temperature: -3.0°C (27°F)
Dewpoint: -5.0°C (23°F) [RH = 86%]
Pressure (altimeter): 30.03 inches Hg (1017.0 mb)
Winds: from the SE (130 degrees) at 7 MPH (6 knots; 3.1 m/s)
Visibility: 6 or more miles (10+ km)
Ceiling: 2600 feet AGL
Clouds: broken clouds at 2600 feet AGL
Weather: no significant weather observed at this time

Forecast for: URMO (BESLAN , RU)
Text: TAF URMO 190500Z 1906/1915 10003G08MPS 9999 OVC015
Forecast period: 0600 to 1500 UTC 19 January 2021
Forecast type: FROM: standard forecast or significant change
Winds: from the E (100 degrees) at 7 MPH (6 knots; 3.1 m/s)
gusting to 18 MPH (16 knots; 8.2 m/s)
Visibility: 6 or more miles (10+ km)
Ceiling: 1500 feet AGL
Clouds: overcast cloud deck at 1500 feet AGL
Weather: no significant weather forecast for this period
Text: TEMPO 1906/1912 3100 -SN BKN004 OVC011
Forecast period: 0600 to 1200 UTC 19 January 2021
Forecast type: TEMPORARY: The following changes expected for less than half the time period
Visibility: 1.93 miles (3.11 km)
Ceiling: 400 feet AGL
Clouds: broken clouds at 400 feet AGL
overcast cloud deck at 1100 feet AGL
Weather: -SN  (light snow)

 AIRPORT MAP

 RUNWAY INFORMATION
Runway 10 Runway length 9843 ft Runway width 148 ft
Runway elevation 1634 ft Runway displaced threshold 0 ft Runway heading 102
Runway 28 Runway length 9843 ft Runway width 148 ft
Runway elevation 1673 ft Runway displaced threshold 0 ft Runway heading 282

 AIRPORT FREQUENCIES
Type MISC Name TRANSIT Frequency 118 MHZ
Type RDR Name KRUG Frequency 125.2 MHZ
Type TWR Name START Frequency 118.1 MHZ

 AIRPORT NEAR NAVIGATION AIDS
Type NDB Name Vladikavkaz Frequency 105 KHZ